createdAt,value
2019-02-26T00:01:57.992Z,103420.13
2019-02-26T00:04:27.316Z,103420.13
2019-02-26T00:06:58.478Z,103416.11
2019-02-26T00:09:30.537Z,103418.00
2019-02-26T00:12:00.043Z,103412.67
2019-02-26T00:14:30.272Z,103410.51
2019-02-26T00:16:59.569Z,103409.80
2019-02-26T00:19:28.813Z,103411.73
2019-02-26T00:21:57.986Z,103411.73
2019-02-26T00:24:30.575Z,103398.59
2019-02-26T00:26:58.612Z,103398.59
2019-02-26T00:29:29.845Z,103394.55
2019-02-26T00:32:00.073Z,103396.33
2019-02-26T00:34:30.497Z,103397.17
2019-02-26T00:37:01.794Z,103397.23
2019-02-26T00:39:31.571Z,103396.38
2019-02-26T00:42:02.734Z,103392.30
2019-02-26T00:44:32.714Z,103393.76
2019-02-26T00:47:04.946Z,103393.03
2019-02-26T00:49:33.599Z,103393.36
2019-02-26T00:52:04.036Z,103393.36
2019-02-26T00:54:34.456Z,103387.42
2019-02-26T00:57:08.104Z,103390.92
2019-02-26T00:59:36.565Z,103389.25
2019-02-26T01:02:06.460Z,103389.25
2019-02-26T01:04:35.650Z,103383.97
2019-02-26T01:07:07.449Z,103383.97
2019-02-26T01:09:36.385Z,103390.13
2019-02-26T01:12:06.546Z,103390.13
2019-02-26T01:14:36.443Z,103383.38
2019-02-26T01:17:07.603Z,103383.38
2019-02-26T01:19:38.566Z,103386.95
2019-02-26T01:22:07.410Z,103381.16
2019-02-26T01:24:36.642Z,103381.16
2019-02-26T01:27:05.840Z,103382.06
2019-02-26T01:29:35.045Z,103382.06
2019-02-26T01:32:04.256Z,103380.80
2019-02-26T01:34:33.460Z,103384.84
2019-02-26T01:37:03.166Z,103384.84
2019-02-26T01:39:35.627Z,103371.51
2019-02-26T01:42:04.430Z,103383.14
2019-02-26T01:44:35.515Z,103383.14
2019-02-26T01:47:04.750Z,103382.72
2019-02-26T01:49:33.998Z,103380.13
2019-02-26T01:52:03.296Z,103378.64
2019-02-26T01:54:33.424Z,103377.25
2019-02-26T01:57:03.368Z,103377.45
2019-02-26T01:59:50.818Z,103408.07
2019-02-26T02:02:20.887Z,103402.24
2019-02-26T02:04:51.064Z,103402.24
2019-02-26T02:07:21.310Z,103391.89
2019-02-26T02:09:53.068Z,103396.30
2019-02-26T02:12:25.447Z,103396.30
2019-02-26T02:14:52.965Z,103387.95
2019-02-26T02:17:22.200Z,103392.38
2019-02-26T02:19:51.398Z,103385.75
2019-02-26T02:22:21.361Z,103385.75
2019-02-26T02:24:51.611Z,103381.83
2019-02-26T02:27:22.583Z,103381.83
2019-02-26T02:29:54.841Z,103380.06
2019-02-26T02:32:25.775Z,103384.91
2019-02-26T02:34:58.256Z,103381.36
2019-02-26T02:37:26.925Z,103379.63
2019-02-26T02:39:56.154Z,103372.48
2019-02-26T02:42:25.339Z,103375.14
2019-02-26T02:44:54.523Z,103375.14
2019-02-26T02:47:25.271Z,103376.91
2019-02-26T02:49:54.635Z,103372.38
2019-02-26T02:52:24.316Z,103372.38
2019-02-26T02:54:54.730Z,103366.59
2019-02-26T02:57:25.039Z,103367.03
2019-02-26T02:59:56.902Z,103360.80
2019-02-26T03:02:26.031Z,103362.20
2019-02-26T03:04:55.247Z,103351.13
2019-02-26T03:07:26.935Z,103363.70
2019-02-26T03:09:55.648Z,103363.70
2019-02-26T03:12:24.835Z,103364.71
2019-02-26T03:14:56.252Z,103366.56
2019-02-26T03:17:24.950Z,103365.17
2019-02-26T03:19:56.033Z,103375.20
2019-02-26T03:22:25.999Z,103379.68
2019-02-26T03:24:57.590Z,103374.28
2019-02-26T03:27:27.969Z,103372.03
2019-02-26T03:29:59.120Z,103375.53
2019-02-26T03:32:27.913Z,103372.91
2019-02-26T03:35:02.122Z,103372.03
2019-02-26T03:37:28.861Z,103370.77
2019-02-26T03:40:00.135Z,103365.46
2019-02-26T03:42:29.747Z,103364.12
2019-02-26T03:44:59.635Z,103370.39
2019-02-26T03:47:29.855Z,103364.16
2019-02-26T03:49:59.001Z,103362.82
2019-02-26T03:52:28.947Z,103364.19
2019-02-26T03:54:59.192Z,103361.99
2019-02-26T03:57:28.338Z,103357.11
2019-02-26T03:59:59.488Z,103355.74
2019-02-26T04:02:28.605Z,103362.40
2019-02-26T04:05:00.780Z,103361.97
2019-02-26T04:07:30.270Z,103358.41
2019-02-26T04:10:00.624Z,103359.30
2019-02-26T04:12:29.803Z,103367.78
2019-02-26T04:14:59.030Z,103364.22
2019-02-26T04:17:30.802Z,103358.89
2019-02-26T04:19:59.148Z,103363.33
2019-02-26T04:22:30.374Z,103361.09
2019-02-26T04:25:06.322Z,103361.12
2019-02-26T04:27:51.731Z,103358.87
2019-02-26T04:30:33.917Z,103355.72
2019-02-26T04:33:24.493Z,103346.36
2019-02-26T04:36:05.726Z,103349.03
2019-02-26T04:39:00.319Z,103349.94
2019-02-26T04:41:32.755Z,103347.72
2019-02-26T04:44:28.826Z,103337.45
2019-02-26T04:46:59.598Z,103336.08
2019-02-26T04:49:30.876Z,103335.66
2019-02-26T04:51:59.142Z,103334.70
2019-02-26T04:54:31.209Z,103339.10
2019-02-26T04:56:59.203Z,103348.08
2019-02-26T04:59:29.874Z,103342.34
2019-02-26T05:01:59.371Z,103338.80
2019-02-26T05:04:30.542Z,103342.43
2019-02-26T05:06:59.471Z,103338.85
2019-02-26T05:09:30.610Z,103334.36
2019-02-26T05:11:59.564Z,103326.77
2019-02-26T05:14:28.787Z,103331.69
2019-02-26T05:16:57.980Z,103342.86
2019-02-26T05:19:27.161Z,103343.77
2019-02-26T05:21:58.774Z,103350.45
2019-02-26T05:24:27.230Z,103344.22
2019-02-26T05:26:56.476Z,103349.98
2019-02-26T05:29:25.664Z,103348.69
2019-02-26T05:31:55.544Z,103349.11
2019-02-26T05:34:25.998Z,103346.44
2019-02-26T05:36:55.220Z,103355.80
2019-02-26T05:39:26.710Z,103355.81
2019-02-26T05:41:57.992Z,103360.28
2019-02-26T05:44:26.279Z,103360.30
2019-02-26T05:46:56.661Z,103359.38
2019-02-26T05:49:26.365Z,103359.86
2019-02-26T05:51:58.569Z,103363.83
2019-02-26T05:54:27.095Z,103363.38
2019-02-26T05:56:56.307Z,103359.84
2019-02-26T05:59:25.486Z,103354.95
2019-02-26T06:01:55.919Z,103360.72
2019-02-26T06:04:25.608Z,103367.42
2019-02-26T06:06:56.307Z,103363.86
2019-02-26T06:09:28.079Z,103363.84
2019-02-26T06:11:56.546Z,103366.07
2019-02-26T06:14:27.540Z,103361.17
2019-02-26T06:16:56.642Z,103362.52
2019-02-26T06:19:34.313Z,103364.28
2019-02-26T06:22:02.521Z,103361.63
2019-02-26T06:24:33.214Z,103359.35
2019-02-26T06:27:02.650Z,103366.92
2019-02-26T06:29:32.622Z,103367.36
2019-02-26T06:32:18.286Z,103371.38
2019-02-26T06:34:47.466Z,103366.04
2019-02-26T06:37:23.808Z,103366.48
2019-02-26T06:39:55.697Z,103366.92
2019-02-26T06:42:24.058Z,103366.03
2019-02-26T06:44:53.264Z,103366.02
2019-02-26T06:47:25.442Z,103367.39
2019-02-26T06:49:53.348Z,103365.64
2019-02-26T06:52:22.545Z,103366.08
2019-02-26T06:54:56.928Z,103361.18
2019-02-26T06:57:22.663Z,103364.27
2019-02-26T06:59:53.679Z,103364.72
2019-02-26T07:02:22.707Z,103367.38
2019-02-26T07:04:51.988Z,103376.72
2019-02-26T07:07:21.261Z,103380.62
2019-02-26T07:09:50.493Z,103379.20
2019-02-26T07:12:21.697Z,103381.98
2019-02-26T07:14:51.373Z,103383.58
2019-02-26T07:17:21.427Z,103384.87
2019-02-26T07:19:52.988Z,103384.87
2019-02-26T07:22:21.524Z,103387.56
2019-02-26T07:24:51.936Z,103387.56
2019-02-26T07:27:21.605Z,103386.09
2019-02-26T07:29:52.359Z,103373.89
2019-02-26T07:32:22.145Z,103373.89
2019-02-26T07:34:52.791Z,103380.81
2019-02-26T07:37:21.968Z,103374.51
2019-02-26T07:39:52.968Z,103379.88
2019-02-26T07:42:22.165Z,103370.43
2019-02-26T07:44:51.370Z,103369.75
2019-02-26T07:47:22.082Z,103365.87
2019-02-26T07:49:51.495Z,103365.87
2019-02-26T07:52:21.582Z,103366.48
2019-02-26T07:54:51.940Z,103357.98
2019-02-26T07:57:22.799Z,103357.98
2019-02-26T07:59:52.010Z,103364.75
2019-02-26T08:02:21.186Z,103362.77
2019-02-26T08:04:50.411Z,103355.03
2019-02-26T08:07:21.526Z,103361.96
2019-02-26T08:09:50.486Z,103359.79
2019-02-26T08:12:19.688Z,103351.66
2019-02-26T08:14:50.112Z,103358.59
2019-02-26T08:17:19.436Z,103355.92
2019-02-26T08:19:49.329Z,103352.75
2019-02-26T08:22:36.548Z,103354.84
2019-02-26T08:25:07.582Z,103356.25
2019-02-26T08:27:37.915Z,103357.50
2019-02-26T08:30:14.828Z,103352.22
2019-02-26T08:32:48.379Z,103353.99
2019-02-26T08:35:18.077Z,103355.20
2019-02-26T08:37:45.507Z,103355.83
2019-02-26T08:40:15.270Z,103351.05
2019-02-26T08:42:44.468Z,103359.09
2019-02-26T08:45:25.054Z,103366.00
2019-02-26T08:47:52.062Z,103358.44
2019-02-26T08:50:21.263Z,103352.66
2019-02-26T08:52:52.990Z,103353.34
2019-02-26T08:55:22.266Z,103352.59
2019-02-26T08:57:53.943Z,103352.59
2019-02-26T09:00:23.313Z,103355.41
2019-02-26T09:02:54.457Z,103351.26
2019-02-26T09:05:25.863Z,103345.48
2019-02-26T09:07:54.325Z,103356.43
2019-02-26T09:10:23.515Z,103356.43
2019-02-26T09:12:52.745Z,103359.23
2019-02-26T09:15:22.481Z,103359.23
2019-02-26T09:17:51.670Z,103357.28
2019-02-26T09:20:21.617Z,103359.27
2019-02-26T09:22:53.500Z,103363.53
2019-02-26T09:25:24.213Z,103365.91
2019-02-26T09:27:52.617Z,103369.00
2019-02-26T09:30:21.807Z,103374.55
2019-02-26T09:32:52.498Z,103363.75
2019-02-26T09:35:26.912Z,103383.56
2019-02-26T09:37:55.523Z,103375.02
2019-02-26T09:40:26.064Z,103381.57
2019-02-26T09:42:57.362Z,103380.30
2019-02-26T09:45:29.776Z,103373.19
2019-02-26T09:48:00.386Z,103370.16
2019-02-26T09:50:29.538Z,103374.89
2019-02-26T09:52:59.359Z,103375.42
2019-02-26T09:55:46.861Z,103376.77
2019-02-26T09:58:18.069Z,103372.82
2019-02-26T10:00:48.124Z,103375.45
2019-02-26T10:03:17.931Z,103370.86
2019-02-26T10:05:48.197Z,103372.72
2019-02-26T10:08:19.880Z,103367.81
2019-02-26T10:10:48.924Z,103362.95
2019-02-26T10:13:18.723Z,103358.73
2019-02-26T10:15:49.014Z,103359.55
2019-02-26T10:18:18.214Z,103360.66
2019-02-26T10:20:48.287Z,103357.86
2019-02-26T10:23:19.384Z,103358.45
2019-02-26T10:25:53.041Z,103347.54
2019-02-26T10:28:21.616Z,103356.76
2019-02-26T10:30:51.471Z,103354.42
2019-02-26T10:33:21.189Z,103347.50
2019-02-26T10:35:50.616Z,103347.50
2019-02-26T10:38:19.800Z,103338.52
2019-02-26T10:40:53.940Z,103342.97
2019-02-26T10:43:19.885Z,103343.28
2019-02-26T10:45:50.566Z,103340.14
2019-02-26T10:48:24.445Z,103337.33
2019-02-26T10:50:51.817Z,103334.81
2019-02-26T10:53:22.684Z,103331.93
2019-02-26T10:55:52.022Z,103331.93
2019-02-26T10:58:21.211Z,103323.21
2019-02-26T11:00:53.167Z,103323.21
2019-02-26T11:03:22.872Z,103319.44
2019-02-26T11:05:52.456Z,103320.88
2019-02-26T11:08:24.785Z,103320.88
2019-02-26T11:10:52.596Z,103332.20
2019-02-26T11:13:24.895Z,103324.91
2019-02-26T11:15:53.963Z,103332.39
2019-02-26T11:18:23.706Z,103338.66
2019-02-26T11:20:55.901Z,103330.71
2019-02-26T11:23:30.753Z,103324.91
2019-02-26T11:25:54.827Z,103324.30
2019-02-26T11:28:27.126Z,103323.45
2019-02-26T11:30:56.716Z,103326.08
2019-02-26T11:33:25.870Z,103328.08
2019-02-26T11:35:55.194Z,103323.11
2019-02-26T11:38:24.372Z,103318.04
2019-02-26T11:40:53.679Z,103316.53
2019-02-26T11:43:25.999Z,103315.94
2019-02-26T11:45:53.787Z,103307.72
2019-02-26T11:48:25.739Z,103303.75
2019-02-26T11:50:54.128Z,103304.55
2019-02-26T11:53:23.353Z,103299.81
2019-02-26T11:55:54.988Z,103295.59
2019-02-26T11:58:24.717Z,103291.25
2019-02-26T12:00:57.382Z,103299.52
2019-02-26T12:03:29.734Z,103287.59
2019-02-26T12:05:59.091Z,103287.86
2019-02-26T12:08:28.430Z,103284.10
2019-02-26T12:13:28.500Z,103279.53
2019-02-26T12:15:57.728Z,103278.30
2019-02-26T12:18:26.920Z,103276.42
2019-02-26T12:20:56.957Z,103269.77
2019-02-26T12:23:26.138Z,103272.89
2019-02-26T12:25:56.448Z,103271.14
2019-02-26T12:28:28.483Z,103265.28
2019-02-26T12:30:58.619Z,103266.63
2019-02-26T12:33:28.017Z,103263.00
2019-02-26T12:35:59.525Z,103258.80
2019-02-26T12:38:28.172Z,103259.27
2019-02-26T12:40:57.360Z,103259.34
2019-02-26T12:43:26.542Z,103253.31
2019-02-26T12:45:58.835Z,103251.81
2019-02-26T12:48:26.644Z,103253.17
2019-02-26T12:50:58.413Z,103246.22
2019-02-26T12:53:26.885Z,103252.64
2019-02-26T12:55:57.475Z,103250.66
2019-02-26T12:58:28.021Z,103248.25
2019-02-26T13:01:02.332Z,103245.31
2019-02-26T13:03:31.532Z,103240.81
2019-02-26T13:06:00.720Z,103236.36
2019-02-26T13:08:29.920Z,103235.50
2019-02-26T13:10:59.193Z,103233.08
2019-02-26T13:13:28.387Z,103227.17
2019-02-26T13:15:57.559Z,103229.05
2019-02-26T13:18:26.779Z,103223.48
2019-02-26T13:20:59.372Z,103218.76
2019-02-26T13:23:26.897Z,103212.06
2019-02-26T13:25:56.442Z,103220.43
2019-02-26T13:28:29.591Z,103212.16
2019-02-26T13:31:01.327Z,103213.50
2019-02-26T13:33:34.553Z,103206.97
2019-02-26T13:36:01.073Z,103201.08
2019-02-26T13:38:36.868Z,103201.83
2019-02-26T13:41:19.825Z,103198.17
2019-02-26T13:43:31.153Z,103196.06
2019-02-26T13:46:01.970Z,103200.23
2019-02-26T13:48:31.235Z,103195.70
2019-02-26T13:51:00.519Z,103190.22
2019-02-26T13:53:29.704Z,103185.26
2019-02-26T13:55:58.949Z,103169.10
2019-02-26T13:58:28.119Z,103180.30
2019-02-26T14:00:57.480Z,103180.44
2019-02-26T14:03:26.672Z,103179.93
2019-02-26T14:05:55.874Z,103176.69
2019-02-26T14:08:25.062Z,103177.61
2019-02-26T14:10:54.265Z,103176.27
2019-02-26T14:13:23.627Z,103168.29
2019-02-26T14:15:53.043Z,103172.09
2019-02-26T14:18:22.276Z,103169.15
2019-02-26T14:20:51.461Z,103165.41
2019-02-26T14:23:20.657Z,103168.51
2019-02-26T14:25:49.856Z,103167.37
2019-02-26T14:28:19.053Z,103161.52
2019-02-26T14:30:48.244Z,103169.81
2019-02-26T14:33:17.437Z,103162.72
2019-02-26T14:35:46.652Z,103166.67
2019-02-26T14:38:15.764Z,103164.06
2019-02-26T14:40:44.983Z,103158.58
2019-02-26T14:43:14.167Z,103159.66
2019-02-26T14:45:43.360Z,103155.39
2019-02-26T14:48:13.859Z,103153.67
2019-02-26T14:50:43.141Z,103152.63
2019-02-26T14:53:12.397Z,103148.80
2019-02-26T14:55:41.551Z,103140.52
2019-02-26T14:58:10.743Z,103141.20
2019-02-26T15:00:40.255Z,103138.02
2019-02-26T15:03:09.454Z,103140.12
2019-02-26T15:05:38.651Z,103135.55
2019-02-26T15:08:09.615Z,103139.34
2019-02-26T15:10:38.745Z,103134.86
2019-02-26T15:13:07.930Z,103132.81
2019-02-26T15:15:37.163Z,103126.37
2019-02-26T15:18:06.438Z,103128.48
2019-02-26T15:20:35.654Z,103112.38
2019-02-26T15:23:05.109Z,103121.64
2019-02-26T15:25:34.345Z,103119.95
2019-02-26T15:28:05.411Z,103114.87
2019-02-26T15:30:34.510Z,103116.64
2019-02-26T15:33:10.766Z,103110.17
2019-02-26T15:35:34.741Z,103109.03
2019-02-26T15:38:04.000Z,103113.73
2019-02-26T15:40:33.207Z,103113.48
2019-02-26T15:43:03.269Z,103112.88
2019-02-26T15:45:32.945Z,103115.08
2019-02-26T15:48:04.052Z,103109.20
2019-02-26T15:50:33.695Z,103109.36
2019-02-26T15:53:02.943Z,103106.34
2019-02-26T15:55:32.618Z,103104.00
2019-02-26T15:58:04.361Z,103106.29
2019-02-26T16:00:32.781Z,103106.34
2019-02-26T16:03:02.053Z,103106.71
2019-02-26T16:05:33.556Z,103103.52
2019-02-26T16:08:02.771Z,103100.23
2019-02-26T16:10:31.931Z,103102.88
2019-02-26T16:13:04.831Z,103101.09
2019-02-26T16:15:35.757Z,103098.77
2019-02-26T16:18:05.187Z,103089.28
2019-02-26T16:20:34.403Z,103089.52
2019-02-26T16:23:03.629Z,103085.06
2019-02-26T16:25:32.828Z,103081.77
2019-02-26T16:28:02.093Z,103085.55
2019-02-26T16:30:31.292Z,103079.91
2019-02-26T16:33:01.531Z,103085.81
2019-02-26T16:35:30.773Z,103081.66
2019-02-26T16:38:00.017Z,103081.02
2019-02-26T16:40:32.206Z,103078.39
2019-02-26T16:43:00.194Z,103075.38
2019-02-26T16:45:34.415Z,103077.16
2019-02-26T16:48:00.753Z,103075.05
2019-02-26T16:50:31.735Z,103065.32
2019-02-26T16:53:01.379Z,103071.86
2019-02-26T16:55:32.226Z,103069.33
2019-02-26T16:58:03.208Z,103068.45
2019-02-26T17:00:32.907Z,103068.03
2019-02-26T17:03:02.100Z,103070.03
2019-02-26T17:05:31.294Z,103068.52
2019-02-26T17:08:00.564Z,103070.71
2019-02-26T17:10:30.684Z,103072.00
2019-02-26T17:13:02.280Z,103078.17
2019-02-26T17:15:31.878Z,103078.17
2019-02-26T17:18:01.071Z,103074.26
2019-02-26T17:20:30.337Z,103077.61
2019-02-26T17:22:59.649Z,103073.77
2019-02-26T17:25:29.127Z,103074.01
2019-02-26T17:27:58.373Z,103073.72
2019-02-26T17:30:27.625Z,103070.20
2019-02-26T17:32:57.069Z,103077.75
2019-02-26T17:35:28.713Z,103075.72
2019-02-26T17:37:57.344Z,103071.66
2019-02-26T17:40:27.562Z,103073.46
2019-02-26T17:42:57.035Z,103082.34
2019-02-26T17:45:37.233Z,103084.17
2019-02-26T17:48:06.918Z,103083.50
2019-02-26T17:50:43.421Z,103088.28
2019-02-26T17:53:13.350Z,103092.03
2019-02-26T17:55:42.549Z,103092.14
2019-02-26T17:58:11.722Z,103096.34
2019-02-26T18:00:48.296Z,103100.97
2019-02-26T18:03:17.482Z,103097.58
2019-02-26T18:05:51.255Z,103105.25
2019-02-26T18:08:19.103Z,103098.22
2019-02-26T18:10:48.498Z,103098.70
2019-02-26T18:13:20.447Z,103100.63
2019-02-26T18:15:48.690Z,103097.14
2019-02-26T18:18:17.883Z,103104.09
2019-02-26T18:20:47.263Z,103094.81
2019-02-26T18:23:16.490Z,103092.59
2019-02-26T18:25:45.659Z,103089.11
2019-02-26T18:28:33.104Z,103088.86
2019-02-26T18:31:02.285Z,103088.91
2019-02-26T18:33:35.564Z,103086.34
2019-02-26T18:36:02.392Z,103091.88
2019-02-26T18:38:31.579Z,103090.14
2019-02-26T18:41:01.284Z,103078.69
2019-02-26T18:43:30.680Z,103082.30
2019-02-26T18:46:00.767Z,103087.70
2019-02-26T18:48:30.581Z,103076.59
2019-02-26T18:51:02.375Z,103082.39
2019-02-26T18:53:30.832Z,103070.81
2019-02-26T18:56:01.746Z,103072.69
2019-02-26T18:58:31.576Z,103067.81
2019-02-26T19:01:00.824Z,103066.50
2019-02-26T19:03:30.024Z,103065.67
2019-02-26T19:05:59.238Z,103068.84
2019-02-26T19:08:28.459Z,103062.19
2019-02-26T19:10:57.653Z,103064.06
2019-02-26T19:13:26.867Z,103068.16
2019-02-26T19:15:56.050Z,103069.67
2019-02-26T19:18:25.237Z,103068.88
2019-02-26T19:20:54.453Z,103069.88
2019-02-26T19:23:23.636Z,103060.17
2019-02-26T19:25:52.827Z,103058.04
2019-02-26T19:28:25.697Z,103055.77
2019-02-26T19:30:52.909Z,103052.60
2019-02-26T19:33:22.547Z,103047.77
2019-02-26T19:35:51.786Z,103050.52
2019-02-26T19:38:20.967Z,103048.94
2019-02-26T19:40:53.264Z,103055.23
2019-02-26T19:43:23.761Z,103056.98
2019-02-26T19:45:53.354Z,103047.91
2019-02-26T19:48:22.556Z,103054.02
2019-02-26T19:50:51.778Z,103050.22
2019-02-26T19:53:20.962Z,103051.77
2019-02-26T19:55:50.550Z,103044.75
2019-02-26T19:58:19.755Z,103050.54
2019-02-26T20:00:52.673Z,103049.03
2019-02-26T20:03:19.847Z,103041.94
2019-02-26T20:05:49.023Z,103039.80
2019-02-26T20:08:18.200Z,103038.92
2019-02-26T20:10:49.146Z,103035.75
2019-02-26T20:13:18.310Z,103032.42
2019-02-26T20:15:47.516Z,103033.45
2019-02-26T20:18:20.806Z,103036.14
2019-02-26T20:20:47.667Z,103038.88
2019-02-26T20:23:17.312Z,103042.67
2019-02-26T20:25:46.953Z,103043.58
2019-02-26T20:28:16.086Z,103041.44
2019-02-26T20:30:45.273Z,103038.38
2019-02-26T20:33:14.458Z,103040.20
2019-02-26T20:35:45.393Z,103040.20
2019-02-26T20:38:14.600Z,103038.74
2019-02-26T20:40:43.819Z,103043.66
2019-02-26T20:43:13.029Z,103041.44
2019-02-26T20:45:42.204Z,103038.05
2019-02-26T20:48:11.388Z,103032.99
2019-02-26T20:50:40.626Z,103032.20
2019-02-26T20:53:09.805Z,103025.97
2019-02-26T20:55:39.003Z,103019.71
2019-02-26T20:58:11.671Z,103019.64
2019-02-26T21:00:42.386Z,103018.48
2019-02-26T21:03:10.006Z,103015.39
2019-02-26T21:05:41.785Z,103015.94
2019-02-26T21:08:10.096Z,103015.83
2019-02-26T21:10:39.334Z,103004.54
2019-02-26T21:13:08.520Z,103008.94
2019-02-26T21:15:37.711Z,103009.73
2019-02-26T21:18:06.912Z,103017.27
2019-02-26T21:20:36.099Z,103020.36
2019-02-26T21:23:05.280Z,103014.61
2019-02-26T21:25:34.563Z,103012.91
2019-02-26T21:28:03.748Z,103006.77
2019-02-26T21:30:32.937Z,102996.91
2019-02-26T21:33:02.153Z,102998.18
2019-02-26T21:35:31.401Z,102998.18
2019-02-26T21:38:01.058Z,102997.74
2019-02-26T21:40:30.241Z,102988.08
2019-02-26T21:43:01.719Z,102993.81
2019-02-26T21:45:30.408Z,102988.11
2019-02-26T21:48:02.391Z,102989.61
2019-02-26T21:50:30.490Z,102989.61
2019-02-26T21:52:59.967Z,102984.30
2019-02-26T21:55:33.718Z,102992.89
2019-02-26T21:58:00.221Z,102982.31
2019-02-26T22:00:29.462Z,102994.14
2019-02-26T22:02:58.638Z,102994.69
2019-02-26T22:05:27.804Z,102994.69
2019-02-26T22:07:57.026Z,102990.17
2019-02-26T22:10:26.212Z,102984.03
2019-02-26T22:12:56.773Z,102985.89
2019-02-26T22:15:28.059Z,102979.16
2019-02-26T22:17:58.231Z,102973.81
2019-02-26T22:20:36.330Z,102975.30
2019-02-26T22:23:00.451Z,102978.94
2019-02-26T22:25:29.890Z,102976.36
2019-02-26T22:27:59.099Z,102973.05
2019-02-26T22:30:28.290Z,102972.57
2019-02-26T22:32:57.479Z,102964.57
2019-02-26T22:35:26.685Z,102963.73
2019-02-26T22:37:55.935Z,102957.55
2019-02-26T22:40:28.898Z,102957.55
2019-02-26T22:42:56.025Z,102959.70
2019-02-26T22:45:27.695Z,102962.42
2019-02-26T22:47:56.100Z,102957.98
2019-02-26T22:50:27.202Z,102956.68
2019-02-26T22:52:56.195Z,102961.52
2019-02-26T22:55:25.382Z,102960.17
2019-02-26T22:57:54.770Z,102958.28
2019-02-26T23:00:48.242Z,102961.81
2019-02-26T23:03:15.006Z,102958.10
2019-02-26T23:05:44.283Z,102965.48
2019-02-26T23:08:13.561Z,102963.23
2019-02-26T23:10:42.768Z,102963.23
2019-02-26T23:13:12.493Z,102961.84
2019-02-26T23:15:45.027Z,102955.59
2019-02-26T23:18:13.368Z,102965.00
2019-02-26T23:20:43.319Z,102954.72
2019-02-26T23:23:12.586Z,102956.97
2019-02-26T23:25:42.667Z,102954.72
2019-02-26T23:28:11.913Z,102954.02
2019-02-26T23:30:41.661Z,102951.08
2019-02-26T23:33:15.031Z,102947.08
2019-02-26T23:35:41.817Z,102952.49
2019-02-26T23:38:11.093Z,102950.27
2019-02-26T23:40:40.293Z,102945.33
2019-02-26T23:43:11.819Z,102947.28
2019-02-26T23:45:40.472Z,102946.41
2019-02-26T23:48:09.658Z,102942.92
2019-02-26T23:50:38.884Z,102943.42
2019-02-26T23:53:08.082Z,102937.00
2019-02-26T23:55:37.269Z,102938.45
2019-02-26T23:58:06.443Z,102939.42
